createdAt,value
2024-02-05T00:02:59.258Z,1.92
2024-02-05T00:06:01.230Z,1.38
2024-02-05T00:09:06.260Z,1.40
2024-02-05T00:12:08.058Z,1.80
2024-02-05T00:15:10.181Z,1.80
2024-02-05T00:18:11.982Z,1.50
2024-02-05T00:21:13.715Z,1.40
2024-02-05T00:24:15.391Z,1.60
2024-02-05T00:27:17.060Z,1.40
2024-02-05T00:30:19.665Z,1.60
2024-02-05T00:33:21.436Z,1.65
2024-02-05T00:36:23.212Z,1.77
2024-02-05T00:39:25.894Z,1.67
2024-02-05T00:42:27.494Z,1.90
2024-02-05T00:45:29.131Z,2.08
2024-02-05T00:48:30.849Z,1.80
2024-02-05T00:51:32.562Z,1.90
2024-02-05T00:54:34.283Z,2.00
2024-02-05T00:57:36.028Z,1.80
2024-02-05T01:00:37.814Z,1.70
2024-02-05T01:03:39.655Z,2.17
2024-02-05T01:06:41.657Z,1.90
2024-02-05T01:09:43.671Z,1.77
2024-02-05T01:12:45.459Z,1.95
2024-02-05T01:15:47.138Z,2.30
2024-02-05T01:18:48.984Z,2.10
2024-02-05T01:21:50.705Z,1.92
2024-02-05T01:24:52.372Z,2.20
2024-02-05T01:27:54.096Z,1.67
2024-02-05T01:30:55.745Z,1.80
2024-02-05T01:33:57.468Z,1.75
2024-02-05T01:36:59.272Z,1.50
2024-02-05T01:40:00.950Z,2.20
2024-02-05T01:43:02.691Z,2.03
2024-02-05T01:46:05.000Z,1.80
2024-02-05T01:49:08.855Z,2.03
2024-02-05T01:52:12.564Z,2.00
2024-02-05T01:55:16.209Z,1.70
2024-02-05T01:58:20.432Z,1.80
2024-02-05T02:01:22.372Z,1.70
2024-02-05T02:04:24.788Z,1.92
2024-02-05T02:07:27.365Z,1.80
2024-02-05T02:10:29.099Z,2.13
2024-02-05T02:13:31.809Z,1.70
2024-02-05T02:16:34.014Z,1.80
2024-02-05T02:19:50.239Z,1.70
2024-02-05T02:22:57.495Z,2.08
2024-02-05T02:26:02.235Z,1.70
2024-02-05T02:29:03.907Z,1.63
2024-02-05T02:32:30.453Z,1.80
2024-02-05T02:35:43.541Z,1.57
2024-02-05T02:39:12.531Z,1.80
2024-02-05T02:42:16.881Z,1.67
2024-02-05T02:45:19.093Z,1.42
2024-02-05T02:48:20.879Z,1.63
2024-02-05T02:51:23.497Z,2.38
2024-02-05T02:54:25.179Z,1.70
2024-02-05T02:57:26.793Z,1.83
2024-02-05T03:00:29.116Z,1.73
2024-02-05T03:03:31.368Z,1.67
2024-02-05T03:06:33.154Z,1.70
2024-02-05T03:09:34.869Z,1.58
2024-02-05T03:12:36.770Z,1.77
2024-02-05T03:15:38.568Z,1.80
2024-02-05T03:18:40.239Z,1.95
2024-02-05T03:21:42.082Z,1.73
2024-02-05T03:24:43.797Z,1.73
2024-02-05T03:27:45.542Z,1.80
2024-02-05T03:30:47.682Z,1.70
2024-02-05T03:33:49.714Z,2.00
2024-02-05T03:36:51.853Z,1.50
2024-02-05T03:39:53.502Z,1.60
2024-02-05T03:42:55.960Z,1.70
2024-02-05T03:45:57.746Z,2.03
2024-02-05T03:49:00.248Z,1.80
2024-02-05T03:52:02.060Z,1.70
2024-02-05T03:55:05.277Z,1.60
2024-02-05T03:58:07.631Z,1.90
2024-02-05T04:01:09.668Z,1.65
2024-02-05T04:04:12.566Z,1.70
2024-02-05T04:07:14.582Z,1.77
2024-02-05T04:10:16.244Z,1.60
2024-02-05T04:13:18.361Z,1.67
2024-02-05T04:16:20.166Z,1.92
2024-02-05T04:19:21.793Z,1.60
2024-02-05T04:22:23.444Z,1.90
2024-02-05T04:25:25.325Z,1.63
2024-02-05T04:28:27.176Z,1.38
2024-02-05T04:31:29.015Z,1.50
2024-02-05T04:34:30.791Z,1.40
2024-02-05T04:37:32.475Z,1.40
2024-02-05T04:40:34.123Z,1.63
2024-02-05T04:43:38.874Z,1.50
2024-02-05T04:46:40.501Z,1.40
2024-02-05T04:49:44.609Z,1.40
2024-02-05T04:52:48.723Z,1.60
2024-02-05T04:55:50.598Z,1.60
2024-02-05T04:58:53.168Z,1.67
2024-02-05T05:01:54.956Z,1.65
2024-02-05T05:04:56.770Z,1.40
2024-02-05T05:07:59.075Z,1.55
2024-02-05T05:11:00.958Z,1.48
2024-02-05T05:14:02.703Z,1.55
2024-02-05T05:17:04.552Z,1.70
2024-02-05T05:20:06.597Z,1.50
2024-02-05T05:23:08.356Z,1.40
2024-02-05T05:26:10.853Z,1.50
2024-02-05T05:29:12.527Z,1.20
2024-02-05T05:32:14.243Z,1.20
2024-02-05T05:35:18.326Z,1.60
2024-02-05T05:38:20.037Z,1.20
2024-02-05T05:41:21.960Z,1.30
2024-02-05T05:44:23.740Z,1.10
2024-02-05T05:47:25.416Z,1.30
2024-02-05T05:50:27.053Z,1.00
2024-02-05T05:53:28.720Z,1.00
2024-02-05T05:56:30.404Z,1.33
2024-02-05T05:59:32.447Z,1.45
2024-02-05T06:02:34.140Z,1.35
2024-02-05T06:05:35.821Z,1.40
2024-02-05T06:08:37.453Z,1.27
2024-02-05T06:11:39.115Z,1.30
2024-02-05T06:14:41.994Z,1.40
2024-02-05T06:17:43.729Z,1.10
2024-02-05T06:20:45.520Z,1.23
2024-02-05T06:23:47.139Z,1.30
2024-02-05T06:26:48.817Z,1.50
2024-02-05T06:29:52.184Z,1.33
2024-02-05T06:32:54.425Z,1.52
2024-02-05T06:35:56.309Z,1.60
2024-02-05T06:38:57.921Z,1.90
2024-02-05T06:41:59.598Z,1.70
2024-02-05T06:45:01.249Z,1.60
2024-02-05T06:48:03.101Z,1.50
2024-02-05T06:51:04.956Z,1.50
2024-02-05T06:54:06.665Z,1.50
2024-02-05T06:57:08.349Z,1.30
2024-02-05T07:00:11.514Z,1.98
2024-02-05T07:03:15.247Z,1.40
2024-02-05T07:06:18.178Z,1.20
2024-02-05T07:09:23.024Z,1.52
2024-02-05T07:12:24.979Z,1.48
2024-02-05T07:15:26.688Z,1.60
2024-02-05T07:18:28.385Z,1.60
2024-02-05T07:21:31.121Z,1.65
2024-02-05T07:24:32.832Z,1.50
2024-02-05T07:27:36.450Z,2.60
2024-02-05T07:30:38.253Z,3.38
2024-02-05T07:33:39.979Z,2.80
2024-02-05T07:36:41.740Z,2.25
2024-02-05T07:39:43.433Z,3.03
2024-02-05T07:42:45.091Z,2.88
2024-02-05T07:45:46.758Z,3.70
2024-02-05T07:48:48.935Z,1.90
2024-02-05T07:51:50.776Z,1.73
2024-02-05T07:54:52.917Z,1.70
2024-02-05T07:57:54.646Z,2.05
2024-02-05T08:00:56.369Z,1.80
2024-02-05T08:03:58.223Z,1.90
2024-02-05T08:07:00.717Z,2.40
2024-02-05T08:10:02.637Z,2.05
2024-02-05T08:13:04.902Z,2.30
2024-02-05T08:16:07.007Z,2.00
2024-02-05T08:19:11.072Z,3.50
2024-02-05T08:22:12.984Z,1.85
2024-02-05T08:25:15.158Z,2.00
2024-02-05T08:28:16.832Z,2.40
2024-02-05T08:31:21.067Z,1.83
2024-02-05T08:34:22.902Z,2.10
2024-02-05T08:37:24.724Z,3.78
2024-02-05T08:40:26.833Z,3.28
2024-02-05T08:43:28.590Z,6.03
2024-02-05T08:46:30.268Z,3.65
2024-02-05T08:49:31.955Z,3.92
2024-02-05T08:52:33.650Z,3.10
2024-02-05T08:55:35.524Z,2.15
2024-02-05T08:58:37.329Z,1.80
2024-02-05T09:01:39.078Z,1.88
2024-02-05T09:04:40.813Z,2.72
2024-02-05T09:07:42.601Z,1.77
2024-02-05T09:10:44.577Z,1.80
2024-02-05T09:13:46.302Z,1.40
2024-02-05T09:16:47.918Z,1.30
2024-02-05T09:19:49.736Z,1.60
2024-02-05T09:22:51.582Z,1.50
2024-02-05T09:25:53.225Z,2.78
2024-02-05T09:28:54.941Z,1.35
2024-02-05T09:31:56.719Z,1.40
2024-02-05T09:34:59.763Z,1.20
2024-02-05T09:38:03.447Z,1.52
2024-02-05T09:41:07.829Z,1.50
2024-02-05T09:44:10.608Z,1.65
2024-02-05T09:47:19.574Z,1.40
2024-02-05T09:50:22.722Z,1.23
2024-02-05T09:53:24.908Z,1.30
2024-02-05T09:56:32.494Z,1.35
2024-02-05T09:59:35.387Z,1.40
2024-02-05T10:02:38.010Z,1.38
2024-02-05T10:05:40.878Z,1.70
2024-02-05T10:08:42.864Z,2.38
2024-02-05T10:11:50.305Z,1.70
2024-02-05T10:14:52.392Z,1.65
2024-02-05T10:17:54.148Z,1.40
2024-02-05T10:20:56.419Z,1.30
2024-02-05T10:23:58.101Z,1.30
2024-02-05T10:26:59.846Z,1.30
2024-02-05T10:30:03.888Z,1.40
2024-02-05T10:33:06.129Z,1.42
2024-02-05T10:36:08.601Z,1.30
2024-02-05T10:39:10.776Z,1.67
2024-02-05T10:42:12.474Z,1.30
2024-02-05T10:45:14.231Z,1.35
2024-02-05T10:48:16.002Z,2.17
2024-02-05T10:51:18.139Z,1.80
2024-02-05T10:54:21.697Z,1.40
2024-02-05T10:57:27.504Z,1.55
2024-02-05T11:00:30.606Z,1.55
2024-02-05T11:03:38.686Z,1.50
2024-02-05T11:06:47.196Z,1.30
2024-02-05T11:09:50.316Z,1.30
2024-02-05T11:12:58.634Z,1.50
2024-02-05T11:16:03.505Z,1.30
2024-02-05T11:19:08.909Z,1.40
2024-02-05T11:22:12.088Z,1.30
2024-02-05T11:25:15.395Z,1.40
2024-02-05T11:28:17.764Z,1.30
2024-02-05T11:31:19.654Z,1.40
2024-02-05T11:34:22.692Z,1.27
2024-02-05T11:37:26.230Z,1.25
2024-02-05T11:40:31.928Z,1.20
2024-02-05T11:43:35.653Z,1.30
2024-02-05T11:46:39.032Z,1.10
2024-02-05T11:49:46.575Z,1.00
2024-02-05T11:52:48.418Z,1.20
2024-02-05T11:55:50.256Z,1.10
2024-02-05T11:58:51.999Z,1.02
2024-02-05T12:01:53.959Z,1.20
2024-02-05T12:04:56.233Z,1.25
2024-02-05T12:07:58.246Z,1.10
2024-02-05T12:11:00.681Z,1.30
2024-02-05T12:14:02.588Z,1.10
2024-02-05T12:17:14.497Z,1.00
2024-02-05T12:20:20.312Z,1.38
2024-02-05T12:23:22.097Z,1.50
2024-02-05T12:26:24.932Z,1.40
2024-02-05T12:29:26.561Z,1.20
2024-02-05T12:32:35.540Z,1.30
2024-02-05T12:35:40.195Z,1.13
2024-02-05T12:38:42.181Z,1.17
2024-02-05T12:41:45.518Z,1.30
2024-02-05T12:45:01.029Z,1.00
2024-02-05T12:48:11.822Z,1.02
2024-02-05T12:51:13.914Z,1.02
2024-02-05T12:54:16.616Z,1.05
2024-02-05T12:57:18.987Z,1.40
2024-02-05T13:00:22.226Z,1.40
2024-02-05T13:03:23.941Z,1.25
2024-02-05T13:06:28.903Z,1.20
2024-02-05T13:09:35.042Z,1.30
2024-02-05T13:12:36.803Z,1.60
2024-02-05T13:15:39.159Z,1.30
2024-02-05T13:18:40.878Z,1.20
2024-02-05T13:21:42.703Z,1.23
2024-02-05T13:24:44.384Z,1.20
2024-02-05T13:27:46.054Z,1.33
2024-02-05T13:30:47.867Z,1.20
2024-02-05T13:33:50.054Z,1.20
2024-02-05T13:36:51.761Z,1.30
2024-02-05T13:39:53.493Z,1.40
2024-02-05T13:42:56.041Z,1.30
2024-02-05T13:45:59.487Z,1.40
2024-02-05T13:49:01.481Z,1.40
2024-02-05T13:52:03.164Z,1.50
2024-02-05T13:55:05.386Z,1.50
2024-02-05T13:58:07.174Z,1.30
2024-02-05T14:01:08.996Z,1.30
2024-02-05T14:04:11.579Z,1.65
2024-02-05T14:07:13.311Z,1.58
2024-02-05T14:10:15.086Z,1.10
2024-02-05T14:13:17.276Z,1.30
2024-02-05T14:16:19.021Z,1.30
2024-02-05T14:19:20.695Z,1.50
2024-02-05T14:22:22.490Z,1.40
2024-02-05T14:25:24.225Z,1.30
2024-02-05T14:28:25.985Z,1.40
2024-02-05T14:31:27.875Z,1.50
2024-02-05T14:34:34.142Z,1.52
2024-02-05T14:37:36.064Z,1.55
2024-02-05T14:40:37.937Z,1.50
2024-02-05T14:43:39.650Z,1.42
2024-02-05T14:46:41.416Z,1.40
2024-02-05T14:49:43.343Z,1.30
2024-02-05T14:52:45.189Z,1.40
2024-02-05T14:55:46.894Z,1.50
2024-02-05T14:58:48.681Z,1.40
2024-02-05T15:01:50.439Z,1.23
2024-02-05T15:04:52.179Z,1.30
2024-02-05T15:07:54.047Z,1.70
2024-02-05T15:10:55.804Z,1.80
2024-02-05T15:13:57.461Z,1.50
2024-02-05T15:16:59.119Z,1.67
2024-02-05T15:20:00.797Z,1.67
2024-02-05T15:23:02.493Z,1.50
2024-02-05T15:26:04.552Z,1.60
2024-02-05T15:29:06.196Z,1.70
2024-02-05T15:32:07.971Z,1.50
2024-02-05T15:35:11.156Z,1.58
2024-02-05T15:38:16.017Z,1.73
2024-02-05T15:41:18.050Z,1.63
2024-02-05T15:44:20.255Z,1.90
2024-02-05T15:47:22.054Z,1.70
2024-02-05T15:50:23.936Z,1.60
2024-02-05T15:53:25.657Z,1.48
2024-02-05T15:56:33.919Z,1.60
2024-02-05T15:59:41.553Z,1.70
2024-02-05T16:02:43.358Z,1.48
2024-02-05T16:05:45.083Z,1.90
2024-02-05T16:08:46.742Z,2.60
2024-02-05T16:11:48.826Z,2.05
2024-02-05T16:14:50.486Z,1.70
2024-02-05T16:17:52.144Z,1.90
2024-02-05T16:20:53.867Z,2.78
2024-02-05T16:23:55.601Z,2.65
2024-02-05T16:26:57.684Z,3.22
2024-02-05T16:29:59.785Z,2.85
2024-02-05T16:33:04.493Z,3.03
2024-02-05T16:36:06.687Z,2.67
2024-02-05T16:39:08.455Z,2.47
2024-02-05T16:42:10.277Z,2.90
2024-02-05T16:45:11.906Z,3.80
2024-02-05T16:48:13.655Z,3.70
2024-02-05T16:51:15.292Z,2.65
2024-02-05T16:54:17.026Z,2.70
2024-02-05T16:57:19.505Z,2.60
2024-02-05T17:00:22.676Z,2.83
2024-02-05T17:03:24.713Z,2.67
2024-02-05T17:06:26.375Z,2.60
2024-02-05T17:09:28.044Z,3.17
2024-02-05T17:12:30.128Z,3.33
2024-02-05T17:15:31.918Z,2.97
2024-02-05T17:18:33.672Z,2.80
2024-02-05T17:21:40.168Z,2.67
2024-02-05T17:24:44.583Z,2.20
2024-02-05T17:27:46.689Z,1.92
2024-02-05T17:30:48.407Z,2.30
2024-02-05T17:33:50.250Z,1.73
2024-02-05T17:36:53.233Z,1.52
2024-02-05T17:39:55.252Z,2.00
2024-02-05T17:42:56.898Z,2.00
2024-02-05T17:45:58.807Z,2.03
2024-02-05T17:49:00.469Z,2.30
2024-02-05T17:52:03.150Z,2.22
2024-02-05T17:55:05.099Z,1.75
2024-02-05T17:58:06.812Z,2.00
2024-02-05T18:01:09.488Z,2.15
2024-02-05T18:04:11.397Z,2.20
2024-02-05T18:07:13.195Z,2.20
2024-02-05T18:10:15.185Z,1.88
2024-02-05T18:13:19.041Z,2.00
2024-02-05T18:16:21.829Z,1.80
2024-02-05T18:19:23.647Z,1.95
2024-02-05T18:22:25.501Z,2.92
2024-02-05T18:25:27.243Z,3.63
2024-02-05T18:28:35.592Z,2.85
2024-02-05T18:31:40.025Z,2.38
2024-02-05T18:34:45.855Z,2.30
2024-02-05T18:37:48.819Z,1.92
2024-02-05T18:40:52.068Z,2.33
2024-02-05T18:43:53.880Z,2.00
2024-02-05T18:46:56.273Z,2.35
2024-02-05T18:49:58.386Z,1.92
2024-02-05T18:53:00.112Z,2.40
2024-02-05T18:56:04.476Z,2.42
2024-02-05T18:59:06.072Z,1.80
2024-02-05T19:02:08.738Z,1.92
2024-02-05T19:05:11.782Z,1.90
2024-02-05T19:08:13.630Z,2.20
2024-02-05T19:11:15.843Z,2.53
2024-02-05T19:14:17.456Z,2.30
2024-02-05T19:17:19.130Z,2.10
2024-02-05T19:20:21.084Z,2.00
2024-02-05T19:23:22.928Z,1.92
2024-02-05T19:26:24.750Z,2.58
2024-02-05T19:29:29.713Z,2.53
2024-02-05T19:32:31.402Z,2.00
2024-02-05T19:35:33.216Z,1.88
2024-02-05T19:38:35.046Z,2.00
2024-02-05T19:41:36.707Z,2.80
2024-02-05T19:44:38.372Z,4.35
2024-02-05T19:47:40.262Z,3.50
2024-02-05T19:50:41.967Z,3.03
2024-02-05T19:53:43.619Z,3.00
2024-02-05T19:56:46.705Z,2.55
2024-02-05T19:59:48.402Z,3.10
2024-02-05T20:02:50.320Z,2.95
2024-02-05T20:05:52.019Z,2.95
2024-02-05T20:08:53.669Z,2.20
2024-02-05T20:11:55.352Z,2.50
2024-02-05T20:14:56.999Z,2.40
2024-02-05T20:17:58.666Z,3.53
2024-02-05T20:21:00.527Z,3.10
2024-02-05T20:24:04.071Z,2.30
2024-02-05T20:27:05.823Z,2.50
2024-02-05T20:30:07.876Z,2.58
2024-02-05T20:33:09.772Z,2.58
2024-02-05T20:36:11.541Z,2.28
2024-02-05T20:39:15.973Z,2.30
2024-02-05T20:42:18.910Z,2.25
2024-02-05T20:45:20.526Z,2.20
2024-02-05T20:48:22.350Z,1.98
2024-02-05T20:51:24.064Z,2.22
2024-02-05T20:54:25.714Z,2.10
2024-02-05T20:57:27.350Z,1.80
2024-02-05T21:00:29.046Z,2.33
2024-02-05T21:03:35.210Z,2.50
2024-02-05T21:06:38.481Z,2.42
2024-02-05T21:09:40.143Z,2.45
2024-02-05T21:12:42.231Z,2.58
2024-02-05T21:15:43.960Z,2.40
2024-02-05T21:18:45.645Z,2.40
2024-02-05T21:21:47.473Z,2.05
2024-02-05T21:24:51.084Z,2.05
2024-02-05T21:27:54.185Z,2.22
2024-02-05T21:30:55.893Z,2.20
2024-02-05T21:33:57.662Z,2.40
2024-02-05T21:36:59.556Z,2.60
2024-02-05T21:40:01.628Z,2.75
2024-02-05T21:43:04.331Z,2.35
2024-02-05T21:46:06.053Z,2.20
2024-02-05T21:49:08.132Z,2.15
2024-02-05T21:52:10.675Z,1.90
2024-02-05T21:55:12.557Z,1.90
2024-02-05T21:58:14.279Z,1.80
2024-02-05T22:01:16.041Z,1.70
2024-02-05T22:04:18.048Z,2.03
2024-02-05T22:07:23.037Z,2.33
2024-02-05T22:10:25.118Z,2.20
2024-02-05T22:13:26.837Z,2.50
2024-02-05T22:16:28.525Z,2.33
2024-02-05T22:19:30.424Z,2.28
2024-02-05T22:22:32.300Z,2.47
2024-02-05T22:25:34.103Z,2.05
2024-02-05T22:28:36.029Z,1.98
2024-02-05T22:31:37.820Z,1.90
2024-02-05T22:34:40.349Z,1.63
2024-02-05T22:37:42.201Z,2.00
2024-02-05T22:40:43.988Z,2.20
2024-02-05T22:43:45.728Z,2.00
2024-02-05T22:46:47.483Z,2.00
2024-02-05T22:49:49.561Z,1.73
2024-02-05T22:52:51.368Z,1.83
2024-02-05T22:55:53.084Z,2.00
2024-02-05T22:58:54.829Z,1.95
2024-02-05T23:01:56.570Z,1.92
2024-02-05T23:04:58.496Z,1.85
2024-02-05T23:08:00.860Z,1.98
2024-02-05T23:11:02.763Z,2.17
2024-02-05T23:14:06.436Z,2.08
2024-02-05T23:17:08.205Z,1.80
2024-02-05T23:20:11.040Z,2.08
2024-02-05T23:23:13.088Z,1.75
2024-02-05T23:26:14.728Z,1.80
2024-02-05T23:29:16.440Z,1.75
2024-02-05T23:32:18.135Z,2.08
2024-02-05T23:35:19.852Z,1.55
2024-02-05T23:38:21.723Z,2.00
2024-02-05T23:41:23.422Z,2.00
2024-02-05T23:44:25.831Z,1.80
2024-02-05T23:47:27.533Z,2.15
2024-02-05T23:50:29.213Z,2.00
2024-02-05T23:53:30.888Z,1.90
2024-02-05T23:56:32.798Z,1.48
2024-02-05T23:59:34.442Z,1.60
